Time;durP1;ratioP1;P1;durP2;ratioP2;P2;SDS_P1;SDS_P2;PMS_P1;PMS_P2;Temp;Humidity;BMP_temperature;BMP_pressure;BME280_temperature;BME280_humidity;BME280_pressure;Samples;Min_cycle;Max_cycle;Signal;HPM_P1;HPM_P2
2023/07/03 00:01:02;;;;;;;7.30;6.20;;;;;;;14.46;93.36;98367.20;136890;1270;22891;-82
2023/07/03 00:04:24;;;;;;;10.40;6.30;;;;;;;14.56;93.57;98361.83;136728;1274;206940;-82
2023/07/03 00:07:25;;;;;;;8.30;6.30;;;;;;;14.68;93.40;98358.02;137340;1274;22551;-82
2023/07/03 00:10:27;;;;;;;6.30;5.70;;;;;;;14.75;93.13;98361.64;136927;1274;24293;-83
2023/07/03 00:13:28;;;;;;;9.30;6.30;;;;;;;14.80;92.98;98365.96;136854;1274;22231;-81
2023/07/03 00:16:29;;;;;;;11.00;5.80;;;;;;;14.85;92.73;98364.84;137035;1274;22613;-82
2023/07/03 00:19:30;;;;;;;12.30;6.00;;;;;;;14.81;92.30;98361.02;137168;1273;22502;-83
2023/07/03 00:22:31;;;;;;;9.70;5.60;;;;;;;14.71;92.18;98360.95;136742;1274;22278;-83
2023/07/03 00:25:32;;;;;;;6.60;5.40;;;;;;;14.58;92.11;98364.77;136877;1274;25250;-80
2023/07/03 00:28:33;;;;;;;6.50;5.30;;;;;;;14.46;92.16;98372.80;137330;1274;22257;-81
2023/07/03 00:31:35;;;;;;;9.00;5.20;;;;;;;14.35;92.52;98376.39;137032;1274;25413;-79
2023/07/03 00:34:36;;;;;;;6.60;5.90;;;;;;;14.25;92.60;98377.21;137185;1274;22570;-80
2023/07/03 00:37:37;;;;;;;8.20;5.60;;;;;;;14.13;92.85;98377.84;137526;1274;22180;-80
2023/07/03 00:40:39;;;;;;;5.70;5.20;;;;;;;14.02;93.09;98381.62;136795;1274;22153;-80
2023/07/03 00:43:40;;;;;;;6.90;5.60;;;;;;;13.93;93.30;98383.64;136937;1274;22569;-80
2023/07/03 00:46:41;;;;;;;6.40;5.70;;;;;;;13.85;93.43;98382.45;137174;1274;22566;-82
2023/07/03 00:49:42;;;;;;;5.50;5.00;;;;;;;13.77;93.72;98383.91;137002;1274;22267;-81
2023/07/03 00:52:43;;;;;;;7.50;6.40;;;;;;;13.71;93.98;98387.29;136669;1274;22198;-81
2023/07/03 00:55:45;;;;;;;7.10;5.40;;;;;;;13.64;94.14;98395.20;137066;1274;22555;-81
2023/07/03 00:58:46;;;;;;;13.10;6.30;;;;;;;13.58;94.36;98392.28;137020;1274;22193;-81
2023/07/03 01:01:47;;;;;;;7.50;5.90;;;;;;;13.50;94.42;98393.39;136765;1274;22184;-82
2023/07/03 01:04:49;;;;;;;6.20;5.40;;;;;;;13.45;94.63;98399.37;136775;1274;22490;-81
2023/07/03 01:07:50;;;;;;;11.00;6.00;;;;;;;13.36;94.70;98398.02;137430;1274;22370;-81
2023/07/03 01:10:51;;;;;;;8.20;5.60;;;;;;;13.30;94.79;98399.64;136842;1274;22270;-81
2023/07/03 01:13:52;;;;;;;6.10;5.50;;;;;;;13.25;94.94;98398.27;136833;1274;22727;-81
2023/07/03 01:16:56;;;;;;;6.20;5.60;;;;;;;13.23;95.21;98400.38;137346;1274;22547;-81
2023/07/03 01:19:57;;;;;;;8.50;5.60;;;;;;;13.17;95.30;98397.25;136807;1274;22192;-81
2023/07/03 01:22:58;;;;;;;6.40;5.90;;;;;;;13.12;95.23;98395.34;136783;1274;22162;-81
2023/07/03 01:25:59;;;;;;;6.50;5.60;;;;;;;13.06;95.22;98393.10;136970;1274;22555;-81
2023/07/03 01:29:00;;;;;;;12.90;5.60;;;;;;;13.02;95.41;98393.81;137000;1274;22192;-81
2023/07/03 01:32:01;;;;;;;7.10;5.70;;;;;;;12.96;95.38;98389.80;136770;1273;22190;-81
2023/07/03 01:35:03;;;;;;;14.50;6.10;;;;;;;12.91;95.56;98385.11;136832;1274;23602;-81
2023/07/03 01:38:05;;;;;;;8.80;5.60;;;;;;;12.87;96.65;98389.84;137087;1274;22564;-79
2023/07/03 01:41:06;;;;;;;6.30;5.60;;;;;;;12.83;99.88;98386.20;136664;1274;22223;-81
2023/07/03 01:44:07;;;;;;;7.50;5.80;;;;;;;12.78;100.00;98386.75;136625;1270;25287;-82
2023/07/03 01:47:08;;;;;;;10.20;6.00;;;;;;;12.74;100.00;98390.77;137247;1274;22352;-81
2023/07/03 01:50:09;;;;;;;8.00;5.70;;;;;;;12.70;100.00;98394.63;136697;1274;22701;-81
2023/07/03 01:53:10;;;;;;;10.00;6.40;;;;;;;12.67;100.00;98394.12;136699;1274;24233;-82
2023/07/03 01:56:12;;;;;;;8.90;5.50;;;;;;;12.64;100.00;98395.01;137390;1270;22143;-82
2023/07/03 01:59:13;;;;;;;7.20;6.50;;;;;;;12.60;100.00;98392.40;136846;1274;22195;-82
2023/07/03 02:02:15;;;;;;;9.30;5.70;;;;;;;12.57;100.00;98393.11;136758;1274;22406;-82
2023/07/03 02:05:16;;;;;;;8.60;6.20;;;;;;;12.55;100.00;98391.54;137112;1274;22534;-82
2023/07/03 02:08:17;;;;;;;272.50;26.80;;;;;;;12.51;100.00;98392.08;136973;1259;22463;-82
2023/07/03 02:11:18;;;;;;;10.80;6.90;;;;;;;12.49;100.00;98394.52;136771;1274;22434;-82
2023/07/03 02:14:19;;;;;;;31.40;7.80;;;;;;;12.47;100.00;98395.59;136989;1274;22549;-82
2023/07/03 02:17:21;;;;;;;10.10;6.50;;;;;;;12.43;100.00;98400.13;137177;1274;23114;-82
2023/07/03 02:20:22;;;;;;;252.50;22.50;;;;;;;12.39;100.00;98404.67;136773;1274;22234;-82
2023/07/03 02:23:23;;;;;;;26.60;7.40;;;;;;;12.36;100.00;98404.34;136823;1274;22540;-81
2023/07/03 02:26:24;;;;;;;7.10;5.40;;;;;;;12.33;100.00;98405.39;137326;1274;22201;-80
2023/07/03 02:29:25;;;;;;;9.80;5.90;;;;;;;12.25;100.00;98407.33;136794;1274;22410;-82
2023/07/03 02:32:26;;;;;;;7.40;6.00;;;;;;;12.18;100.00;98406.64;136632;1274;22743;-81
2023/07/03 02:35:27;;;;;;;14.40;6.10;;;;;;;12.15;100.00;98411.35;137430;1274;22686;-82
2023/07/03 02:38:29;;;;;;;8.40;6.10;;;;;;;12.13;100.00;98410.80;136785;1274;22694;-83
2023/07/03 02:41:30;;;;;;;12.50;6.20;;;;;;;12.12;100.00;98412.89;136564;1274;22613;-81
2023/07/03 02:44:31;;;;;;;7.60;6.20;;;;;;;12.09;100.00;98407.32;137075;1274;25305;-83
2023/07/03 02:47:32;;;;;;;17.80;5.90;;;;;;;12.08;100.00;98408.89;136872;1274;22630;-82
2023/07/03 02:50:33;;;;;;;11.90;6.20;;;;;;;12.09;100.00;98408.18;136713;1274;22569;-83
2023/07/03 02:53:34;;;;;;;7.50;5.50;;;;;;;12.11;100.00;98407.84;137070;1274;22543;-83
2023/07/03 02:56:36;;;;;;;5.90;5.40;;;;;;;12.12;100.00;98405.39;137015;1274;22691;-83
2023/07/03 02:59:37;;;;;;;8.90;6.10;;;;;;;12.13;100.00;98403.30;136805;1274;22167;-83
2023/07/03 03:02:39;;;;;;;8.00;5.80;;;;;;;12.17;100.00;98408.20;136916;1274;22550;-83
2023/07/03 03:05:40;;;;;;;6.40;5.10;;;;;;;12.23;100.00;98407.49;137327;1274;22787;-83
2023/07/03 03:08:41;;;;;;;64.10;7.60;;;;;;;12.31;100.00;98415.16;136776;1274;22289;-84
2023/07/03 03:11:42;;;;;;;7.40;5.70;;;;;;;12.37;100.00;98414.11;136736;1274;22576;-83
2023/07/03 03:14:43;;;;;;;9.20;6.10;;;;;;;12.47;100.00;98411.11;137415;1274;22887;-82
2023/07/03 03:17:44;;;;;;;7.80;5.30;;;;;;;12.56;100.00;98415.10;136788;1274;23628;-83
2023/07/03 03:20:45;;;;;;;9.40;6.30;;;;;;;12.79;100.00;98414.33;136923;1274;22552;-83
2023/07/03 03:23:47;;;;;;;11.50;5.40;;;;;;;12.85;100.00;98416.92;137205;1267;22548;-83
2023/07/03 03:26:48;;;;;;;10.10;5.70;;;;;;;12.97;100.00;98418.98;136813;1274;22774;-83
2023/07/03 03:29:50;;;;;;;7.60;4.90;;;;;;;13.15;100.00;98418.21;136758;1274;22553;-83
2023/07/03 03:32:51;;;;;;;7.40;5.50;;;;;;;13.20;100.00;98416.65;137042;1274;22536;-83
2023/07/03 03:35:52;;;;;;;28.20;7.70;;;;;;;13.24;100.00;98420.98;137063;1274;22631;-83
2023/07/03 03:38:53;;;;;;;5.70;4.90;;;;;;;13.54;100.00;98416.08;136675;1274;22561;-84
2023/07/03 03:41:55;;;;;;;12.30;5.50;;;;;;;13.68;100.00;98416.52;136931;1274;22557;-83
2023/07/03 03:44:56;;;;;;;5.70;4.50;;;;;;;13.96;100.00;98417.36;136848;1274;22508;-84
2023/07/03 03:48:01;;;;;;;7.60;5.10;;;;;;;13.98;100.00;98419.44;136702;1274;22257;-85
2023/07/03 03:51:04;;;;;;;36.60;8.10;;;;;;;14.00;100.00;98419.79;137084;1274;22684;-85
2023/07/03 03:54:05;;;;;;;8.90;4.70;;;;;;;14.03;100.00;98420.98;136571;1274;22768;-83
2023/07/03 03:57:07;;;;;;;65.00;7.40;;;;;;;14.12;100.00;98420.55;137022;1274;24708;-83
2023/07/03 04:00:12;;;;;;;24.10;5.60;;;;;;;14.24;100.00;98418.86;137229;1274;23041;-84
2023/07/03 04:03:14;;;;;;;13.00;5.50;;;;;;;14.35;100.00;98415.60;136802;1274;22313;-85
2023/07/03 04:06:16;;;;;;;5.00;4.50;;;;;;;14.49;100.00;98417.94;137089;1274;22597;-85
2023/07/03 04:09:18;;;;;;;6.70;4.50;;;;;;;14.58;97.77;98415.04;136925;1274;22758;-83
2023/07/03 04:12:19;;;;;;;12.70;5.20;;;;;;;14.69;96.92;98414.75;136769;1274;22646;-84
2023/07/03 04:15:20;;;;;;;29.40;6.80;;;;;;;14.81;96.31;98417.60;136968;1274;23300;-84
2023/07/03 04:18:21;;;;;;;62.60;7.50;;;;;;;14.91;96.28;98414.16;137087;1274;22773;-84
2023/07/03 04:21:23;;;;;;;14.70;4.90;;;;;;;14.99;96.25;98412.31;136796;1274;22581;-82
2023/07/03 04:24:25;;;;;;;32.40;6.40;;;;;;;15.10;96.31;98417.95;137083;1270;22196;-85
2023/07/03 04:27:26;;;;;;;8.60;5.60;;;;;;;15.23;95.76;98419.34;136569;1274;23023;-85
2023/07/03 04:30:27;;;;;;;456.00;40.90;;;;;;;15.34;96.18;98418.67;136701;1273;22521;-82
2023/07/03 04:33:29;;;;;;;24.00;7.20;;;;;;;15.46;96.34;98416.40;137215;1274;22545;-85
2023/07/03 04:36:30;;;;;;;6.60;4.90;;;;;;;15.55;96.17;98412.23;136855;1274;22236;-85
2023/07/03 04:39:31;;;;;;;13.50;4.80;;;;;;;15.60;95.96;98410.44;137409;1274;22345;-84
2023/07/03 04:42:33;;;;;;;88.20;8.70;;;;;;;15.66;95.70;98411.25;137329;1274;22276;-84
2023/07/03 04:45:34;;;;;;;26.30;5.80;;;;;;;15.74;95.83;98414.29;136290;1274;22572;-83
2023/07/03 04:48:35;;;;;;;11.40;4.70;;;;;;;15.90;95.79;98414.89;137465;1274;22304;-84
2023/07/03 04:51:36;;;;;;;8.30;4.80;;;;;;;16.09;96.08;98412.30;137415;1274;22286;-84
2023/07/03 04:54:38;;;;;;;11.70;5.50;;;;;;;16.31;95.94;98416.83;137437;1274;22577;-85
2023/07/03 04:57:42;;;;;;;10.70;6.20;;;;;;;16.56;95.49;98415.88;137110;1274;22574;-84
2023/07/03 05:00:43;;;;;;;10.60;5.10;;;;;;;16.84;95.00;98417.27;137346;1274;22561;-81
2023/07/03 05:03:44;;;;;;;26.70;12.40;;;;;;;17.06;95.22;98418.23;137382;1274;22198;-80
2023/07/03 05:06:46;;;;;;;19.90;8.10;;;;;;;17.26;94.94;98416.94;137356;1274;22692;-80
2023/07/03 05:09:47;;;;;;;12.20;6.50;;;;;;;17.42;94.13;98416.23;137386;1274;22176;-81
2023/07/03 05:12:48;;;;;;;11.90;5.70;;;;;;;17.60;93.45;98416.55;137421;1268;22643;-81
2023/07/03 05:15:49;;;;;;;8.90;6.00;;;;;;;17.79;92.72;98419.31;137407;1274;22205;-81
2023/07/03 05:18:50;;;;;;;472.80;37.40;;;;;;;17.99;91.38;98417.94;137468;1274;22108;-80
2023/07/03 05:21:51;;;;;;;102.00;11.50;;;;;;;18.21;89.85;98422.52;137344;1274;22336;-81
2023/07/03 05:24:52;;;;;;;11.50;5.50;;;;;;;18.48;88.91;98422.87;137387;1274;22343;-84
2023/07/03 05:27:54;;;;;;;48.00;9.60;;;;;;;18.77;88.23;98427.39;137365;1274;22327;-80
2023/07/03 05:30:55;;;;;;;12.50;6.80;;;;;;;19.00;85.73;98428.86;137371;1274;22778;-82
2023/07/03 05:33:56;;;;;;;12.20;6.40;;;;;;;19.25;85.87;98431.35;137093;1267;22616;-81
2023/07/03 05:36:58;;;;;;;174.00;23.20;;;;;;;19.43;84.95;98434.15;137400;1274;22248;-81
2023/07/03 05:39:59;;;;;;;102.70;16.40;;;;;;;19.58;83.21;98434.58;137313;1274;22567;-80
2023/07/03 05:43:00;;;;;;;210.80;16.40;;;;;;;19.79;83.00;98433.05;137111;1261;22487;-81
2023/07/03 05:46:01;;;;;;;18.90;8.70;;;;;;;19.98;82.39;98432.64;136878;1274;22314;-81
2023/07/03 05:49:03;;;;;;;47.60;9.50;;;;;;;20.24;80.56;98433.90;137254;1274;22638;-80
2023/07/03 05:52:04;;;;;;;32.20;8.50;;;;;;;20.61;79.04;98432.84;137108;1267;22242;-82
2023/07/03 05:55:08;;;;;;;;;;;;;;;21.04;77.62;98439.64;136696;1274;22567;-83
2023/07/03 05:58:09;;;;;;;14.80;7.80;;;;;;;21.11;75.47;98443.60;136985;1274;22491;-82
2023/07/03 06:01:10;;;;;;;11.80;7.70;;;;;;;21.06;74.26;98447.89;137296;1274;22250;-83
2023/07/03 06:04:12;;;;;;;28.60;8.80;;;;;;;21.02;73.05;98445.73;136968;1274;22252;-82
2023/07/03 06:07:13;;;;;;;73.50;11.60;;;;;;;21.01;72.83;98449.48;137227;1260;22285;-81
2023/07/03 06:10:14;;;;;;;36.80;9.20;;;;;;;21.29;73.73;98450.41;137330;1274;22451;-82
2023/07/03 06:13:15;;;;;;;9.90;6.80;;;;;;;21.44;72.58;98445.59;137315;1268;22212;-81
2023/07/03 06:16:18;;;;;;;43.80;8.80;;;;;;;21.42;71.71;98452.05;137383;1274;22206;-82
2023/07/03 06:19:19;;;;;;;12.40;6.90;;;;;;;21.47;72.13;98455.72;137375;1274;22260;-81
2023/07/03 06:22:20;;;;;;;10.30;6.20;;;;;;;21.60;71.80;98454.00;137447;1268;22314;-81
2023/07/03 06:25:21;;;;;;;19.00;14.60;;;;;;;21.70;70.92;98459.10;137442;1273;22594;-82
2023/07/03 06:28:23;;;;;;;16.50;8.80;;;;;;;22.20;70.30;98461.39;137402;1274;22159;-81
2023/07/03 06:31:24;;;;;;;11.20;7.30;;;;;;;22.82;67.64;98464.85;137398;1274;22270;-82
2023/07/03 06:34:25;;;;;;;12.20;7.20;;;;;;;22.94;65.29;98470.54;137122;1274;22243;-82
2023/07/03 06:37:26;;;;;;;10.80;7.00;;;;;;;22.85;64.70;98470.77;137330;1270;22527;-82
2023/07/03 06:40:27;;;;;;;8.70;6.90;;;;;;;22.84;64.85;98476.64;137277;1274;22239;-82
2023/07/03 06:43:28;;;;;;;14.70;7.40;;;;;;;23.02;64.55;98479.25;136951;1274;22265;-83
2023/07/03 06:46:30;;;;;;;11.70;7.10;;;;;;;23.09;64.12;98479.98;137085;1274;22610;-82
2023/07/03 06:49:32;;;;;;;77.00;13.20;;;;;;;23.36;62.98;98475.05;137222;1274;22384;-83
2023/07/03 06:52:39;;;;;;;17.60;8.40;;;;;;;23.84;61.60;98472.66;137075;1274;22494;-82
2023/07/03 06:55:40;;;;;;;13.40;8.00;;;;;;;24.34;57.14;98476.64;137448;1274;22397;-77
2023/07/03 06:58:41;;;;;;;15.80;9.00;;;;;;;24.20;55.29;98472.18;137364;1274;22893;-82
2023/07/03 07:01:42;;;;;;;13.10;9.20;;;;;;;24.23;54.34;98471.30;137399;1267;22197;-82
2023/07/03 07:04:44;;;;;;;16.80;8.40;;;;;;;24.28;53.05;98471.98;137437;1268;22272;-82
2023/07/03 07:07:45;;;;;;;79.20;12.20;;;;;;;24.43;52.65;98475.16;137386;1273;22603;-82
2023/07/03 07:10:46;;;;;;;13.10;8.20;;;;;;;24.80;52.56;98467.73;137299;1274;22289;-82
2023/07/03 07:13:47;;;;;;;12.80;8.60;;;;;;;25.14;51.65;98467.61;137063;1270;22527;-82
2023/07/03 07:16:50;;;;;;;13.30;8.10;;;;;;;25.30;50.69;98467.63;137341;1274;22582;-82
2023/07/03 07:19:52;;;;;;;17.90;8.30;;;;;;;25.28;50.05;98468.30;137256;1273;22244;-82
2023/07/03 07:22:53;;;;;;;14.80;8.40;;;;;;;25.48;50.81;98464.55;137312;1274;22677;-82
2023/07/03 07:25:54;;;;;;;10.60;7.90;;;;;;;25.80;49.68;98462.27;137428;1274;22127;-81
2023/07/03 07:28:55;;;;;;;11.70;8.10;;;;;;;26.02;49.27;98464.80;137403;1274;22159;-83
2023/07/03 07:31:57;;;;;;;15.70;8.50;;;;;;;26.14;48.70;98463.77;137433;1274;22212;-82
2023/07/03 07:34:59;;;;;;;21.10;9.70;;;;;;;26.29;48.20;98461.65;137351;1274;22862;-83
2023/07/03 07:38:00;;;;;;;13.20;8.40;;;;;;;26.38;47.90;98461.29;137193;1274;23035;-82
2023/07/03 07:41:05;;;;;;;10.50;8.20;;;;;;;26.47;47.31;98460.05;137231;1274;22733;-82
2023/07/03 07:44:06;;;;;;;12.50;8.40;;;;;;;26.56;46.36;98457.39;136974;1274;22699;-83
2023/07/03 07:47:09;;;;;;;126.20;18.40;;;;;;;26.54;46.02;98451.59;137211;1274;22344;-82
2023/07/03 07:50:12;;;;;;;14.70;9.60;;;;;;;26.59;46.36;98452.41;136719;1274;22569;-83
2023/07/03 07:53:13;;;;;;;24.00;10.40;;;;;;;26.67;46.82;98447.46;137146;1258;22556;-83
2023/07/03 07:56:15;;;;;;;15.30;8.40;;;;;;;26.72;45.18;98443.23;136888;1274;22079;-83
2023/07/03 07:59:16;;;;;;;15.20;6.80;;;;;;;26.71;45.62;98442.59;137168;1274;22247;-83
2023/07/03 08:02:17;;;;;;;11.50;6.60;;;;;;;26.55;45.52;98442.08;137173;1274;22561;-82
2023/07/03 08:05:19;;;;;;;11.70;6.90;;;;;;;26.44;45.84;98442.42;137290;1274;22239;-83
2023/07/03 08:08:20;;;;;;;12.40;6.80;;;;;;;26.33;46.14;98438.75;136746;1274;22277;-82
2023/07/03 08:11:24;;;;;;;11.10;6.80;;;;;;;26.63;45.99;98436.27;137102;1273;22565;-82
2023/07/03 08:14:25;;;;;;;10.10;6.20;;;;;;;26.99;46.36;98434.29;137331;1274;22283;-82
2023/07/03 08:17:28;;;;;;;7.80;5.90;;;;;;;27.23;44.66;98428.02;137056;1274;22273;-84
2023/07/03 08:20:29;;;;;;;10.90;6.90;;;;;;;27.21;44.68;98430.48;136777;1274;22552;-82
2023/07/03 08:23:31;;;;;;;13.10;6.30;;;;;;;27.03;44.84;98423.39;137324;1274;22278;-82
2023/07/03 08:26:32;;;;;;;13.20;6.10;;;;;;;27.06;45.10;98418.02;137450;1274;22223;-84
2023/07/03 08:29:33;;;;;;;39.80;8.90;;;;;;;27.19;45.44;98414.50;137215;1274;22577;-83
2023/07/03 08:32:35;;;;;;;19.30;7.10;;;;;;;26.97;45.05;98409.29;137394;1274;22230;-83
2023/07/03 08:35:40;;;;;;;14.30;6.40;;;;;;;26.72;45.37;98412.67;137540;1268;22328;-84
2023/07/03 08:38:42;;;;;;;15.60;6.70;;;;;;;26.39;45.89;98411.13;137265;1274;22547;-83
2023/07/03 08:41:48;;;;;;;24.90;6.90;;;;;;;26.01;46.74;98413.48;136798;1274;23048;-84
2023/07/03 08:44:53;;;;;;;32.10;22.00;;;;;;;25.74;47.02;98411.61;137405;1274;22557;-82
2023/07/03 08:47:55;;;;;;;10.20;8.70;;;;;;;25.78;47.56;98403.89;137393;1274;22530;-82
2023/07/03 08:50:56;;;;;;;13.10;6.80;;;;;;;26.33;47.02;98397.02;137234;1274;22212;-83
2023/07/03 08:54:02;;;;;;;10.60;6.40;;;;;;;26.51;46.46;98400.80;136830;1274;22924;-83
2023/07/03 08:57:14;;;;;;;9.40;6.70;;;;;;;26.64;45.13;98398.52;137195;1274;22113;-85
2023/07/03 09:00:19;;;;;;;19.10;7.20;;;;;;;27.08;44.38;98388.41;137462;1274;22325;-82
2023/07/03 09:03:20;;;;;;;17.50;6.80;;;;;;;27.75;43.02;98382.35;137276;1274;22570;-81
2023/07/03 09:06:22;;;;;;;13.30;7.00;;;;;;;28.13;41.00;98383.11;136977;1274;22666;-82
2023/07/03 09:09:27;;;;;;;10.60;6.70;;;;;;;27.82;40.85;98387.61;136931;1274;23031;-83
2023/07/03 09:12:28;;;;;;;8.70;6.90;;;;;;;27.82;41.97;98384.40;137310;1274;22987;-82
2023/07/03 09:15:30;;;;;;;10.50;6.90;;;;;;;28.10;40.37;98376.52;137342;1274;22236;-82
2023/07/03 09:18:33;;;;;;;13.10;7.40;;;;;;;27.97;39.80;98381.63;137014;1270;22515;-83
2023/07/03 09:21:35;;;;;;;15.60;7.50;;;;;;;27.61;39.93;98379.29;137068;1274;22564;-82
2023/07/03 09:24:36;;;;;;;13.20;7.10;;;;;;;27.70;39.24;98379.67;137430;1274;22786;-81
2023/07/03 09:27:38;;;;;;;11.60;6.90;;;;;;;27.54;39.19;98384.56;137369;1274;22186;-83
2023/07/03 09:30:39;;;;;;;9.40;6.70;;;;;;;27.25;39.08;98393.77;137420;1274;22113;-83
2023/07/03 09:33:40;;;;;;;10.60;7.20;;;;;;;27.04;40.19;98392.38;137411;1274;22181;-83
2023/07/03 09:36:43;;;;;;;16.00;12.40;;;;;;;26.96;40.30;98393.06;137453;1274;22291;-84
2023/07/03 09:39:45;;;;;;;11.00;8.10;;;;;;;27.25;40.04;98387.86;137400;1274;22183;-81
2023/07/03 09:42:46;;;;;;;11.20;7.40;;;;;;;27.76;39.58;98383.92;137435;1274;22243;-83
2023/07/03 09:45:47;;;;;;;8.00;7.20;;;;;;;28.10;38.11;98382.20;136966;1274;22523;-83
2023/07/03 09:48:48;;;;;;;17.30;7.40;;;;;;;28.17;39.10;98380.31;137052;1274;22539;-83
2023/07/03 09:51:50;;;;;;;41.60;9.80;;;;;;;28.51;38.30;98380.54;137423;1274;22185;-84
2023/07/03 09:54:53;;;;;;;9.60;6.30;;;;;;;28.72;37.81;98381.06;137385;1274;22228;-83
2023/07/03 09:57:55;;;;;;;;;;;;;;;28.84;36.39;98380.41;137390;1274;22391;-83
2023/07/03 10:00:56;;;;;;;8.60;6.50;;;;;;;28.85;34.22;98378.91;137373;1274;22270;-83
2023/07/03 10:03:58;;;;;;;106.10;13.10;;;;;;;28.75;34.50;98375.68;137421;1274;22206;-83
2023/07/03 10:06:59;;;;;;;24.50;6.40;;;;;;;29.07;34.32;98374.52;137443;1274;22349;-82
2023/07/03 10:10:00;;;;;;;16.00;6.40;;;;;;;29.27;33.12;98378.27;137364;1274;22248;-83
2023/07/03 10:13:02;;;;;;;6.40;5.80;;;;;;;29.15;33.26;98375.75;136869;1274;22583;-83
2023/07/03 10:16:12;;;;;;;13.60;6.00;;;;;;;29.18;33.93;98374.11;137153;1274;22278;-83
2023/07/03 10:19:13;;;;;;;29.30;6.80;;;;;;;29.18;32.74;98376.59;136815;1274;22260;-83
2023/07/03 10:22:15;;;;;;;11.70;6.10;;;;;;;29.28;32.38;98371.04;136915;1274;22955;-83
2023/07/03 10:25:17;;;;;;;11.60;6.50;;;;;;;29.42;32.40;98377.06;136971;1274;22131;-84
2023/07/03 10:28:18;;;;;;;15.10;6.50;;;;;;;29.28;32.73;98373.71;136853;1274;22192;-82
2023/07/03 10:31:22;;;;;;;58.50;10.20;;;;;;;29.28;33.90;98370.46;136725;1274;22559;-83
2023/07/03 10:34:24;;;;;;;8.90;6.10;;;;;;;29.63;33.55;98367.26;137060;1274;22673;-83
2023/07/03 10:37:25;;;;;;;10.10;5.70;;;;;;;30.01;33.13;98364.63;137223;1274;22252;-83
2023/07/03 10:40:27;;;;;;;12.10;6.10;;;;;;;29.61;32.62;98368.87;137373;1274;22556;-83
2023/07/03 10:43:28;;;;;;;10.80;7.70;;;;;;;28.80;33.39;98367.98;137425;1259;22393;-83
2023/07/03 10:46:29;;;;;;;9.50;7.00;;;;;;;28.35;34.91;98380.21;137176;1274;22200;-82
2023/07/03 10:49:30;;;;;;;9.70;8.10;;;;;;;28.18;34.83;98380.07;137605;1274;22232;-81
2023/07/03 10:52:32;;;;;;;26.10;9.20;;;;;;;28.21;34.36;98374.29;137439;1274;22303;-82
2023/07/03 10:55:33;;;;;;;20.90;9.70;;;;;;;28.70;32.71;98367.11;137507;1274;22377;-81
2023/07/03 10:58:35;;;;;;;13.40;9.00;;;;;;;28.50;33.97;98380.07;137501;1274;22087;-82
2023/07/03 11:01:39;;;;;;;13.90;8.70;;;;;;;28.43;33.84;98377.84;137463;1274;22155;-82
2023/07/03 11:04:40;;;;;;;14.00;9.10;;;;;;;28.40;34.58;98382.73;137402;1274;22385;-82
2023/07/03 11:07:43;;;;;;;11.20;8.70;;;;;;;28.41;32.99;98380.34;137385;1274;22112;-81
2023/07/03 11:10:44;;;;;;;12.80;9.00;;;;;;;28.51;32.96;98378.02;137362;1269;22551;-82
2023/07/03 11:13:49;;;;;;;21.40;9.10;;;;;;;28.41;32.43;98370.80;136975;1274;22248;-81
2023/07/03 11:16:51;;;;;;;12.10;9.10;;;;;;;28.28;32.86;98369.95;137372;1274;22147;-81
2023/07/03 11:19:52;;;;;;;20.30;10.30;;;;;;;28.06;33.57;98375.31;137133;1274;22994;-80
2023/07/03 11:22:56;;;;;;;11.20;9.20;;;;;;;27.71;34.18;98382.23;137418;1274;22169;-83
2023/07/03 11:25:58;;;;;;;12.90;9.30;;;;;;;27.22;34.26;98377.67;137368;1274;22180;-80
2023/07/03 11:29:02;;;;;;;12.10;8.90;;;;;;;27.13;34.93;98390.80;137174;1274;22775;-79
2023/07/03 11:32:04;;;;;;;12.80;9.10;;;;;;;27.52;35.08;98377.41;137417;1272;22235;-81
2023/07/03 11:35:07;;;;;;;18.90;10.20;;;;;;;28.14;33.70;98379.83;137354;1268;22220;-81
2023/07/03 11:38:09;;;;;;;14.30;9.00;;;;;;;28.44;31.03;98374.05;137383;1274;22290;-81
2023/07/03 11:41:10;;;;;;;16.10;9.60;;;;;;;28.62;31.05;98364.73;137391;1274;22175;-82
2023/07/03 11:44:12;;;;;;;10.80;9.50;;;;;;;28.79;30.62;98364.09;137387;1274;22179;-81
2023/07/03 11:47:13;;;;;;;15.50;9.60;;;;;;;28.93;30.54;98366.73;137332;1274;22637;-80
2023/07/03 11:50:14;;;;;;;13.30;9.30;;;;;;;28.60;31.30;98365.26;137414;1274;22380;-82
2023/07/03 11:53:15;;;;;;;22.00;8.90;;;;;;;28.60;30.94;98365.09;137289;1274;22092;-80
2023/07/03 11:56:16;;;;;;;22.60;12.50;;;;;;;28.45;30.57;98370.42;137329;1274;22755;-83
2023/07/03 11:59:18;;;;;;;14.20;9.20;;;;;;;27.97;29.77;98378.78;137396;1274;22215;-81
2023/07/03 12:02:19;;;;;;;21.10;9.90;;;;;;;27.98;29.84;98379.81;137410;1274;22282;-83
2023/07/03 12:05:20;;;;;;;12.90;9.40;;;;;;;28.11;29.69;98379.46;137177;1271;208239;-80
2023/07/03 12:08:22;;;;;;;17.10;8.70;;;;;;;28.28;29.24;98377.42;137371;1274;22162;-78
2023/07/03 12:11:26;;;;;;;15.80;9.90;;;;;;;28.43;28.86;98375.55;137395;1265;22238;-80
2023/07/03 12:14:28;;;;;;;17.40;9.40;;;;;;;28.42;29.42;98382.20;137357;1274;22314;-82
2023/07/03 12:17:29;;;;;;;26.00;9.20;;;;;;;28.17;29.57;98384.42;137282;1274;22273;-80
2023/07/03 12:20:30;;;;;;;13.60;9.80;;;;;;;28.10;29.17;98389.54;137317;1274;22184;-81
2023/07/03 12:23:31;;;;;;;13.40;9.10;;;;;;;27.88;29.45;98389.56;137415;1274;22390;-79
2023/07/03 12:26:33;;;;;;;37.70;11.70;;;;;;;27.95;29.59;98382.86;137335;1274;22425;-81
2023/07/03 12:29:34;;;;;;;15.30;9.80;;;;;;;28.23;29.68;98385.66;137258;1274;22386;-80
2023/07/03 12:32:35;;;;;;;12.90;9.40;;;;;;;28.26;29.08;98384.20;137335;1274;22390;-81
2023/07/03 12:35:36;;;;;;;20.20;10.00;;;;;;;28.40;28.71;98380.40;137361;1274;22211;-79
2023/07/03 12:38:37;;;;;;;21.60;9.60;;;;;;;28.27;29.26;98383.80;137288;1274;22353;-80
2023/07/03 12:41:39;;;;;;;13.30;9.50;;;;;;;28.18;29.45;98380.98;137304;1274;22564;-80
2023/07/03 12:44:40;;;;;;;15.70;9.60;;;;;;;28.34;29.90;98379.33;137360;1274;22324;-79
2023/07/03 12:47:41;;;;;;;16.60;9.00;;;;;;;28.64;30.36;98376.44;137384;1274;22206;-80
2023/07/03 12:50:42;;;;;;;13.60;9.60;;;;;;;28.72;30.02;98378.55;137392;1274;22203;-80
2023/07/03 12:53:43;;;;;;;14.30;9.20;;;;;;;28.42;30.06;98381.49;137378;1271;22259;-81
2023/07/03 12:56:44;;;;;;;12.10;9.40;;;;;;;28.22;30.39;98382.84;137260;1274;22210;-83
2023/07/03 12:59:46;;;;;;;11.90;9.30;;;;;;;28.06;30.37;98381.75;137382;1274;22290;-81
2023/07/03 13:02:47;;;;;;;73.90;14.50;;;;;;;28.32;30.88;98376.83;137405;1274;22337;-81
2023/07/03 13:05:48;;;;;;;13.30;10.30;;;;;;;28.75;30.21;98375.84;137333;1274;22705;-80
2023/07/03 13:08:49;;;;;;;13.30;9.30;;;;;;;28.78;29.57;98373.67;137392;1274;22644;-81
2023/07/03 13:11:51;;;;;;;12.70;9.70;;;;;;;28.62;30.25;98369.41;137420;1271;22344;-82
2023/07/03 13:14:52;;;;;;;14.10;9.60;;;;;;;28.63;29.78;98371.88;137412;1274;22392;-81
2023/07/03 13:17:53;;;;;;;15.50;10.30;;;;;;;28.66;29.78;98363.99;137450;1274;22103;-82
2023/07/03 13:20:57;;;;;;;22.00;11.40;;;;;;;28.86;30.71;98362.90;137257;1274;22251;-83
2023/07/03 13:23:58;;;;;;;14.10;9.70;;;;;;;29.06;30.03;98363.98;137393;1274;22298;-81
2023/07/03 13:26:59;;;;;;;14.80;10.00;;;;;;;29.31;29.57;98359.17;137393;1274;22643;-81
2023/07/03 13:30:00;;;;;;;16.40;10.20;;;;;;;29.42;29.33;98356.76;137381;1274;22179;-82
2023/07/03 13:33:01;;;;;;;16.80;9.90;;;;;;;29.40;29.21;98347.27;137374;1274;22105;-82
2023/07/03 13:36:03;;;;;;;16.90;9.80;;;;;;;29.36;29.10;98359.91;137413;1274;22187;-83
2023/07/03 13:39:04;;;;;;;17.70;9.70;;;;;;;29.36;30.59;98350.60;137102;1274;22646;-83
2023/07/03 13:42:06;;;;;;;13.30;10.20;;;;;;;29.29;29.68;98344.63;137050;1273;22423;-83
2023/07/03 13:45:07;;;;;;;13.00;10.10;;;;;;;28.98;29.40;98348.64;137036;1274;22590;-82
2023/07/03 13:48:09;;;;;;;17.20;11.00;;;;;;;28.63;29.80;98353.59;137389;1274;22204;-81
2023/07/03 13:51:12;;;;;;;18.20;9.90;;;;;;;28.52;30.11;98351.61;136934;1274;22542;-82
2023/07/03 13:54:13;;;;;;;13.50;11.10;;;;;;;28.59;30.45;98345.08;137212;1274;22566;-81